San Jose, Costa Rica
Current Conditions -  °F | °C
As of 12:00 PM on Sunday 25 Jan 2015 (Local Time) from MROC Reporting Station
Scattered Clouds Scattered Clouds  
Wind Chill: 79°   Ceiling: Unl
Heat Index: 80°   Visibility: 6mi
Dew Point: 57°   Wind: 16mph
Humidity: 47%   Direction: 70°ENE
Pressure: 29.97"   Gusts: 28mph
Location:  10°N, 84.22°W
Report Text: MROC 251800Z 07014G24KT 9999 FEW035 SCT060 26/14 A2997 NOSIG
Loading
Personal Weather Stations






























Interactive Weather Map New forecast layout! Learn more

10-Day Weather Forecast

Advertisements
Track Severe Weather on mobile